Time;durP1;ratioP1;P1;durP2;ratioP2;P2;SDS_P1;SDS_P2;PMS_P1;PMS_P2;Temp;Humidity;BMP_temperature;BMP_pressure;BME280_temperature;BME280_humidity;BME280_pressure;Samples;Min_cycle;Max_cycle;Signal;HPM_P1;HPM_P2
2022/10/25 00:00:04;;;;;;;5.03;1.10;;;;;;;;;;5074504;28;20021;-75
2022/10/25 00:02:33;;;;;;;6.30;1.20;;;;;;;;;;5074710;28;20032;-75
2022/10/25 00:04:59;;;;;;;4.78;1.23;;;;;;;;;;5074522;28;20037;-75
2022/10/25 00:07:25;;;;;;;10.98;1.58;;;;;;;;;;5074382;28;20411;-75
2022/10/25 00:09:52;;;;;;;3.97;1.52;;;;;;;;;;5074878;28;20029;-75
2022/10/25 00:12:18;;;;;;;5.85;1.40;;;;;;;;;;5074227;28;20024;-76
2022/10/25 00:14:44;;;;;;;7.60;1.00;;;;;;;;;;5073261;28;20036;-76
2022/10/25 00:17:11;;;;;;;8.55;1.23;;;;;;;;;;5074642;28;20032;-74
2022/10/25 00:19:37;;;;;;;8.25;1.73;;;;;;;;;;5074356;28;20023;-74
2022/10/25 00:22:03;;;;;;;4.85;1.50;;;;;;;;;;5074230;28;20043;-75
2022/10/25 00:24:30;;;;;;;4.82;1.15;;;;;;;;;;5074466;28;20042;-75
2022/10/25 00:26:56;;;;;;;9.13;1.15;;;;;;;;;;5074025;28;20016;-75
2022/10/25 00:29:22;;;;;;;8.45;1.25;;;;;;;;;;5074353;28;20033;-76
2022/10/25 00:31:49;;;;;;;6.05;1.40;;;;;;;;;;5074274;28;20027;-75
2022/10/25 00:34:15;;;;;;;6.88;1.45;;;;;;;;;;5073992;28;20035;-75
2022/10/25 00:36:41;;;;;;;2.58;1.10;;;;;;;;;;5074054;28;20016;-75
2022/10/25 00:39:08;;;;;;;3.53;1.20;;;;;;;;;;5074132;28;20416;-75
2022/10/25 00:41:34;;;;;;;4.72;0.98;;;;;;;;;;5074076;28;20060;-76
2022/10/25 00:44:19;;;;;;;4.13;1.38;;;;;;;;;;5072904;28;20085;-76
2022/10/25 00:46:46;;;;;;;5.60;1.10;;;;;;;;;;5073873;28;20029;-75
2022/10/25 00:49:15;;;;;;;2.28;1.13;;;;;;;;;;5073808;28;20024;-75
2022/10/25 00:51:53;;;;;;;3.65;1.20;;;;;;;;;;5074140;28;20032;-76
2022/10/25 00:54:26;;;;;;;9.00;1.77;;;;;;;;;;5073677;28;20020;-75
2022/10/25 00:56:52;;;;;;;5.15;1.50;;;;;;;;;;5073058;28;20024;-75
2022/10/25 00:59:21;;;;;;;4.53;1.33;;;;;;;;;;5073869;28;20024;-75
2022/10/25 01:01:48;;;;;;;4.35;1.60;;;;;;;;;;5073733;28;20031;-75
2022/10/25 01:04:15;;;;;;;8.05;2.08;;;;;;;;;;5073711;28;20036;-75
2022/10/25 01:06:48;;;;;;;9.10;1.70;;;;;;;;;;5073262;28;20029;-75
2022/10/25 01:09:18;;;;;;;8.70;1.73;;;;;;;;;;5073327;28;20028;-75
2022/10/25 01:11:44;;;;;;;8.65;1.20;;;;;;;;;;5072900;28;20025;-75
2022/10/25 01:14:13;;;;;;;9.77;1.80;;;;;;;;;;5073200;28;20056;-75
2022/10/25 01:16:48;;;;;;;3.75;1.15;;;;;;;;;;5073278;28;20027;-75
2022/10/25 01:19:25;;;;;;;9.73;1.55;;;;;;;;;;5073235;28;20032;-75
2022/10/25 01:21:58;;;;;;;4.90;1.60;;;;;;;;;;5073213;28;20024;-75
2022/10/25 01:24:24;;;;;;;5.07;1.30;;;;;;;;;;5073056;28;20037;-75
2022/10/25 01:27:02;;;;;;;5.43;1.40;;;;;;;;;;5072730;28;20039;-76
2022/10/25 01:29:56;;;;;;;5.53;1.48;;;;;;;;;;5073051;28;20029;-76
2022/10/25 01:32:32;;;;;;;4.90;1.42;;;;;;;;;;5073081;28;20020;-75
2022/10/25 01:34:58;;;;;;;3.88;1.67;;;;;;;;;;5072921;28;20199;-75
2022/10/25 01:37:27;;;;;;;3.78;1.30;;;;;;;;;;5072767;28;20379;-76
2022/10/25 01:39:53;;;;;;;4.32;1.30;;;;;;;;;;5072797;28;20023;-75
2022/10/25 01:42:25;;;;;;;3.55;1.27;;;;;;;;;;5073088;28;20036;-75
2022/10/25 01:45:10;;;;;;;4.32;1.63;;;;;;;;;;5072758;28;20028;-75
2022/10/25 01:47:36;;;;;;;7.65;1.42;;;;;;;;;;5073046;28;20023;-75
2022/10/25 01:50:14;;;;;;;6.40;1.75;;;;;;;;;;5072883;28;20427;-75
2022/10/25 01:52:40;;;;;;;5.15;1.60;;;;;;;;;;5072717;28;20401;-76
2022/10/25 01:55:08;;;;;;;9.32;1.60;;;;;;;;;;5072213;28;20020;-75
2022/10/25 01:57:47;;;;;;;4.78;1.55;;;;;;;;;;5072570;28;20073;-76
2022/10/25 02:00:17;;;;;;;5.10;1.55;;;;;;;;;;5073175;28;20025;-75
2022/10/25 02:02:44;;;;;;;5.25;1.30;;;;;;;;;;5072735;28;20028;-76
2022/10/25 02:05:33;;;;;;;8.30;1.40;;;;;;;;;;5072896;28;20047;-75
2022/10/25 02:08:06;;;;;;;4.00;1.25;;;;;;;;;;5072323;28;20093;-75
2022/10/25 02:10:37;;;;;;;5.25;1.52;;;;;;;;;;5072412;28;20035;-75
2022/10/25 02:13:09;;;;;;;7.32;1.63;;;;;;;;;;5072211;28;20481;-75
2022/10/25 02:15:39;;;;;;;5.38;1.50;;;;;;;;;;5072294;28;20561;-76
2022/10/25 02:18:07;;;;;;;4.88;1.30;;;;;;;;;;5072444;28;20017;-75
2022/10/25 02:20:34;;;;;;;7.10;1.77;;;;;;;;;;5072472;28;20025;-76
2022/10/25 02:23:02;;;;;;;2.33;1.20;;;;;;;;;;5071932;28;20037;-75
2022/10/25 02:25:31;;;;;;;4.68;1.50;;;;;;;;;;5072302;28;20029;-75
2022/10/25 02:27:58;;;;;;;3.53;1.35;;;;;;;;;;5072811;28;20033;-75
2022/10/25 02:30:24;;;;;;;6.45;1.40;;;;;;;;;;5072220;28;20029;-75
2022/10/25 02:32:51;;;;;;;6.72;1.52;;;;;;;;;;5072360;28;20073;-76
2022/10/25 02:35:18;;;;;;;3.58;1.55;;;;;;;;;;5072643;28;20028;-75
2022/10/25 02:37:45;;;;;;;5.18;1.40;;;;;;;;;;5071933;28;20032;-75
2022/10/25 02:40:11;;;;;;;8.90;1.67;;;;;;;;;;5072412;28;20500;-75
2022/10/25 02:42:38;;;;;;;5.43;1.50;;;;;;;;;;5072435;28;20029;-75
2022/10/25 02:45:04;;;;;;;4.65;1.20;;;;;;;;;;5072062;28;20493;-75
2022/10/25 02:47:31;;;;;;;6.45;1.33;;;;;;;;;;5072359;28;20017;-76
2022/10/25 02:49:57;;;;;;;5.47;1.70;;;;;;;;;;5072291;28;20431;-75
2022/10/25 02:52:23;;;;;;;9.40;1.38;;;;;;;;;;5072079;28;20023;-76
2022/10/25 02:54:50;;;;;;;5.32;1.50;;;;;;;;;;5072150;28;20021;-75
2022/10/25 02:57:16;;;;;;;5.50;1.38;;;;;;;;;;5071937;28;20031;-76
2022/10/25 02:59:42;;;;;;;4.45;1.38;;;;;;;;;;5071983;28;20029;-76
2022/10/25 03:02:09;;;;;;;3.22;1.20;;;;;;;;;;5072212;28;20017;-75
2022/10/25 03:04:35;;;;;;;9.35;1.50;;;;;;;;;;5071853;28;20501;-76
2022/10/25 03:07:01;;;;;;;12.13;1.38;;;;;;;;;;5071398;28;20023;-76
2022/10/25 03:09:27;;;;;;;9.43;1.50;;;;;;;;;;5075413;28;20431;-76
2022/10/25 03:11:54;;;;;;;2.22;1.17;;;;;;;;;;5074594;28;20028;-76
2022/10/25 03:14:20;;;;;;;4.95;1.63;;;;;;;;;;5075455;28;20048;-75
2022/10/25 03:16:46;;;;;;;8.05;1.23;;;;;;;;;;5075608;28;20025;-76
2022/10/25 03:19:13;;;;;;;5.78;1.63;;;;;;;;;;5075886;28;20028;-76
2022/10/25 03:21:39;;;;;;;2.90;1.20;;;;;;;;;;5075099;28;20025;-76
2022/10/25 03:24:06;;;;;;;4.20;1.25;;;;;;;;;;5074328;28;20036;-75
2022/10/25 03:26:32;;;;;;;3.80;1.00;;;;;;;;;;5075478;28;20032;-75
2022/10/25 03:28:58;;;;;;;11.00;1.48;;;;;;;;;;5075660;28;20039;-75
2022/10/25 03:31:25;;;;;;;3.03;1.25;;;;;;;;;;5075567;28;20025;-75
2022/10/25 03:33:51;;;;;;;4.97;1.25;;;;;;;;;;5075186;28;20503;-74
2022/10/25 03:36:17;;;;;;;5.40;1.55;;;;;;;;;;5074806;28;20039;-75
2022/10/25 03:38:44;;;;;;;3.72;1.35;;;;;;;;;;5075253;28;20027;-74
2022/10/25 03:41:10;;;;;;;4.30;1.33;;;;;;;;;;5075078;28;20020;-76
2022/10/25 03:43:36;;;;;;;8.68;1.35;;;;;;;;;;5075125;28;20027;-74
2022/10/25 03:46:03;;;;;;;6.80;1.30;;;;;;;;;;5075217;28;20028;-75
2022/10/25 03:48:29;;;;;;;3.45;1.08;;;;;;;;;;5075205;28;20028;-74
2022/10/25 03:50:55;;;;;;;4.60;1.27;;;;;;;;;;5074819;28;20473;-75
2022/10/25 03:53:22;;;;;;;8.95;1.92;;;;;;;;;;5073686;28;20028;-75
2022/10/25 03:55:48;;;;;;;5.88;1.52;;;;;;;;;;5074962;28;20020;-75
2022/10/25 03:58:15;;;;;;;7.68;1.20;;;;;;;;;;5075063;28;20020;-74
2022/10/25 04:00:41;;;;;;;9.05;1.27;;;;;;;;;;5075045;28;20095;-75
2022/10/25 04:03:08;;;;;;;4.03;1.33;;;;;;;;;;5073431;28;20392;-75
2022/10/25 04:05:35;;;;;;;4.53;1.50;;;;;;;;;;5073131;28;20388;-76
2022/10/25 04:08:01;;;;;;;3.83;1.10;;;;;;;;;;5074653;28;20028;-75
2022/10/25 04:10:27;;;;;;;4.85;1.40;;;;;;;;;;5073660;28;20488;-75
2022/10/25 04:12:54;;;;;;;5.65;1.40;;;;;;;;;;5074535;28;20023;-75
2022/10/25 04:15:20;;;;;;;4.70;1.40;;;;;;;;;;5074642;28;20041;-75
2022/10/25 04:17:50;;;;;;;3.72;1.35;;;;;;;;;;5074715;28;20028;-75
2022/10/25 04:20:17;;;;;;;6.10;1.10;;;;;;;;;;5073941;28;20032;-75
2022/10/25 04:22:43;;;;;;;3.85;1.20;;;;;;;;;;5074395;28;20024;-75
2022/10/25 04:25:09;;;;;;;5.43;1.30;;;;;;;;;;5074196;28;20040;-76
2022/10/25 04:27:36;;;;;;;5.97;1.17;;;;;;;;;;5073070;28;20025;-76
2022/10/25 04:30:02;;;;;;;5.80;1.77;;;;;;;;;;5074073;28;20046;-76
2022/10/25 04:32:29;;;;;;;2.22;1.23;;;;;;;;;;5074089;28;20016;-75
2022/10/25 04:34:55;;;;;;;2.60;1.20;;;;;;;;;;5073678;28;20029;-75
2022/10/25 04:37:21;;;;;;;6.72;1.58;;;;;;;;;;5073155;28;20052;-75
2022/10/25 04:39:48;;;;;;;3.50;1.08;;;;;;;;;;5074026;28;20029;-75
2022/10/25 04:42:14;;;;;;;4.60;1.63;;;;;;;;;;5074114;28;20073;-75
2022/10/25 04:44:40;;;;;;;5.72;1.45;;;;;;;;;;5073682;28;20042;-75
2022/10/25 04:47:07;;;;;;;12.30;1.73;;;;;;;;;;5073728;28;20024;-76
2022/10/25 04:49:33;;;;;;;4.78;1.40;;;;;;;;;;5072322;28;20470;-76
2022/10/25 04:51:59;;;;;;;3.47;1.40;;;;;;;;;;5072608;28;20040;-75
2022/10/25 04:54:26;;;;;;;11.52;1.48;;;;;;;;;;5073756;28;20478;-75
2022/10/25 04:56:52;;;;;;;4.38;1.13;;;;;;;;;;5072386;28;20028;-75
2022/10/25 04:59:18;;;;;;;6.22;1.40;;;;;;;;;;5073624;28;20527;-75
2022/10/25 05:01:45;;;;;;;3.75;1.42;;;;;;;;;;5073703;28;20029;-76
2022/10/25 05:04:11;;;;;;;3.13;1.20;;;;;;;;;;5073314;28;20036;-75
2022/10/25 05:06:37;;;;;;;3.22;1.35;;;;;;;;;;5073429;28;20025;-75
2022/10/25 05:09:04;;;;;;;9.65;1.77;;;;;;;;;;5073412;28;20021;-76
2022/10/25 05:11:31;;;;;;;6.82;1.70;;;;;;;;;;5073413;28;20016;-75
2022/10/25 05:13:57;;;;;;;3.45;1.23;;;;;;;;;;5073245;28;20428;-75
2022/10/25 05:16:24;;;;;;;5.68;1.50;;;;;;;;;;5073202;28;20036;-76
2022/10/25 05:18:55;;;;;;;5.65;1.38;;;;;;;;;;5073087;28;20032;-76
2022/10/25 05:21:27;;;;;;;11.50;1.45;;;;;;;;;;5073066;28;20526;-76
2022/10/25 05:23:53;;;;;;;6.18;1.80;;;;;;;;;;5072995;28;20496;-75
2022/10/25 05:26:20;;;;;;;5.25;1.50;;;;;;;;;;5073451;28;20020;-75
2022/10/25 05:28:48;;;;;;;6.72;1.30;;;;;;;;;;5072995;28;20025;-75
2022/10/25 05:31:15;;;;;;;5.78;1.63;;;;;;;;;;5072365;28;20526;-75
2022/10/25 05:33:46;;;;;;;7.28;1.52;;;;;;;;;;5073036;28;20021;-75
2022/10/25 05:36:13;;;;;;;5.32;1.60;;;;;;;;;;5071698;28;20032;-75
2022/10/25 05:38:39;;;;;;;5.80;1.67;;;;;;;;;;5073124;28;20020;-75
2022/10/25 05:41:06;;;;;;;4.78;1.38;;;;;;;;;;5073114;28;20023;-75
2022/10/25 05:43:32;;;;;;;7.38;1.95;;;;;;;;;;5072844;28;20039;-76
2022/10/25 05:46:04;;;;;;;6.07;1.60;;;;;;;;;;5072606;28;20039;-75
2022/10/25 05:48:31;;;;;;;9.00;1.95;;;;;;;;;;5072825;28;20507;-75
2022/10/25 05:51:07;;;;;;;4.38;1.38;;;;;;;;;;5072820;28;20404;-75
2022/10/25 05:53:33;;;;;;;4.20;1.45;;;;;;;;;;5072901;28;20029;-75
2022/10/25 05:56:00;;;;;;;3.78;1.60;;;;;;;;;;5072897;28;20025;-75
2022/10/25 05:58:26;;;;;;;4.00;1.25;;;;;;;;;;5072934;28;20035;-75
2022/10/25 06:00:52;;;;;;;4.50;1.60;;;;;;;;;;5072136;28;20495;-75
2022/10/25 06:03:19;;;;;;;10.35;1.60;;;;;;;;;;5072583;28;20037;-75
2022/10/25 06:05:45;;;;;;;6.60;1.50;;;;;;;;;;5061089;28;20029;-76
2022/10/25 06:08:11;;;;;;;6.22;1.60;;;;;;;;;;5070179;28;20380;-76
2022/10/25 06:10:38;;;;;;;5.35;1.58;;;;;;;;;;5072384;28;20031;-75
2022/10/25 06:13:04;;;;;;;4.30;1.52;;;;;;;;;;5072282;28;20032;-75
2022/10/25 06:15:30;;;;;;;4.30;1.50;;;;;;;;;;5071999;28;20031;-76
2022/10/25 06:17:57;;;;;;;9.70;1.25;;;;;;;;;;5062020;28;20024;-74
2022/10/25 06:20:23;;;;;;;4.38;1.35;;;;;;;;;;5064533;28;20496;-75
2022/10/25 06:22:49;;;;;;;5.22;1.58;;;;;;;;;;5071254;28;20021;-75
2022/10/25 06:25:16;;;;;;;9.55;1.80;;;;;;;;;;5071834;28;20462;-74
2022/10/25 06:27:42;;;;;;;8.85;1.40;;;;;;;;;;5068566;28;20735;-75
2022/10/25 06:30:09;;;;;;;4.75;1.67;;;;;;;;;;5067815;28;20082;-74
2022/10/25 06:32:36;;;;;;;8.15;1.70;;;;;;;;;;5063838;28;20025;-75
2022/10/25 06:35:03;;;;;;;7.35;1.50;;;;;;;;;;5071556;28;20037;-75
2022/10/25 06:37:30;;;;;;;7.47;1.77;;;;;;;;;;5068765;28;20035;-75
2022/10/25 06:39:56;;;;;;;7.20;1.52;;;;;;;;;;5070213;28;20031;-76
2022/10/25 06:42:22;;;;;;;6.47;1.63;;;;;;;;;;5068633;28;20028;-74
2022/10/25 06:44:49;;;;;;;13.27;2.15;;;;;;;;;;5073478;28;20051;-74
2022/10/25 06:47:15;;;;;;;11.70;1.98;;;;;;;;;;5066582;28;20388;-75
2022/10/25 06:49:41;;;;;;;8.10;1.75;;;;;;;;;;5071990;28;20025;-75
2022/10/25 06:52:08;;;;;;;10.77;1.90;;;;;;;;;;5067547;28;20029;-76
2022/10/25 06:54:34;;;;;;;8.80;1.77;;;;;;;;;;5057992;28;20038;-75
2022/10/25 06:57:01;;;;;;;6.70;1.75;;;;;;;;;;5075219;28;20016;-75
2022/10/25 06:59:27;;;;;;;10.07;3.75;;;;;;;;;;5073640;28;20021;-76
2022/10/25 07:01:55;;;;;;;5.50;2.05;;;;;;;;;;5069849;28;20126;-76
2022/10/25 07:04:22;;;;;;;14.63;2.42;;;;;;;;;;5054719;28;20062;-75
2022/10/25 07:06:48;;;;;;;29.77;3.30;;;;;;;;;;5054823;28;20025;-76
2022/10/25 07:09:15;;;;;;;16.80;2.22;;;;;;;;;;5054945;28;20036;-75
2022/10/25 07:11:41;;;;;;;5.55;1.48;;;;;;;;;;5068456;28;20031;-76
2022/10/25 07:14:09;;;;;;;13.57;2.00;;;;;;;;;;5072514;28;20050;-75
2022/10/25 07:16:35;;;;;;;8.85;1.50;;;;;;;;;;5075207;28;20032;-76
2022/10/25 07:19:02;;;;;;;9.05;2.00;;;;;;;;;;5071625;28;20031;-74
2022/10/25 07:21:29;;;;;;;6.93;2.20;;;;;;;;;;5068653;28;20034;-76
2022/10/25 07:23:55;;;;;;;11.57;2.25;;;;;;;;;;5073706;28;20398;-76
2022/10/25 07:26:23;;;;;;;12.38;1.63;;;;;;;;;;5074567;28;20063;-76
2022/10/25 07:28:50;;;;;;;12.52;2.10;;;;;;;;;;5074042;28;20393;-76
2022/10/25 07:31:21;;;;;;;37.78;3.50;;;;;;;;;;5071398;28;20485;-75
2022/10/25 07:33:48;;;;;;;25.73;2.70;;;;;;;;;;5070817;28;20036;-76
2022/10/25 07:36:14;;;;;;;12.05;2.15;;;;;;;;;;5054397;28;20033;-75
2022/10/25 07:38:40;;;;;;;7.32;2.20;;;;;;;;;;5064617;28;20477;-76
2022/10/25 07:41:07;;;;;;;6.40;1.85;;;;;;;;;;5073738;28;20038;-76
2022/10/25 07:43:34;;;;;;;7.93;2.63;;;;;;;;;;5061078;28;20021;-76
2022/10/25 07:46:00;;;;;;;9.30;2.03;;;;;;;;;;5071372;28;20028;-75
2022/10/25 07:48:27;;;;;;;6.60;2.50;;;;;;;;;;5073637;28;20020;-76
2022/10/25 07:50:53;;;;;;;7.28;2.70;;;;;;;;;;5072844;28;20403;-76
2022/10/25 07:53:19;;;;;;;9.32;2.00;;;;;;;;;;5073346;28;20019;-75
2022/10/25 07:55:52;;;;;;;6.40;1.90;;;;;;;;;;5072876;28;20037;-75
2022/10/25 07:58:19;;;;;;;6.63;2.20;;;;;;;;;;5073663;28;20055;-75
2022/10/25 08:00:45;;;;;;;25.67;3.88;;;;;;;;;;5084638;28;20024;-75
2022/10/25 08:03:12;;;;;;;5.53;1.88;;;;;;;;;;5087799;28;20031;-75
2022/10/25 08:05:38;;;;;;;7.78;2.10;;;;;;;;;;5069280;28;20055;-76
2022/10/25 08:08:05;;;;;;;5.55;2.03;;;;;;;;;;5069438;28;21872;-76
2022/10/25 08:10:31;;;;;;;8.27;1.73;;;;;;;;;;5073956;28;20035;-75
2022/10/25 08:12:57;;;;;;;16.88;1.90;;;;;;;;;;5068043;28;20504;-76
2022/10/25 08:15:24;;;;;;;12.75;1.95;;;;;;;;;;5069712;28;20039;-75
2022/10/25 08:17:57;;;;;;;17.80;2.20;;;;;;;;;;5079566;28;20021;-75
2022/10/25 08:20:23;;;;;;;9.45;2.50;;;;;;;;;;5070467;28;20020;-76
2022/10/25 08:22:50;;;;;;;7.80;1.83;;;;;;;;;;5053391;28;20377;-75
2022/10/25 08:25:16;;;;;;;17.00;3.00;;;;;;;;;;5070304;28;20028;-75
2022/10/25 08:27:42;;;;;;;7.15;2.03;;;;;;;;;;5084629;28;20028;-76
2022/10/25 08:30:09;;;;;;;6.30;1.45;;;;;;;;;;5067212;28;20024;-76
2022/10/25 08:32:38;;;;;;;8.13;1.90;;;;;;;;;;5073137;28;20032;-76
2022/10/25 08:35:05;;;;;;;5.68;1.90;;;;;;;;;;5086899;28;20035;-76
2022/10/25 08:37:31;;;;;;;5.82;2.22;;;;;;;;;;5077118;28;20032;-76
2022/10/25 08:39:57;;;;;;;4.93;1.80;;;;;;;;;;5071417;28;20024;-76
2022/10/25 08:42:42;;;;;;;8.25;1.60;;;;;;;;;;5067619;28;20021;-76
2022/10/25 08:45:13;;;;;;;5.68;1.90;;;;;;;;;;5069248;28;20036;-76
2022/10/25 08:47:43;;;;;;;4.53;1.92;;;;;;;;;;5072361;28;20028;-75
2022/10/25 08:50:15;;;;;;;8.00;1.55;;;;;;;;;;5071602;28;20489;-75
2022/10/25 08:52:57;;;;;;;7.72;1.85;;;;;;;;;;5068420;28;20413;-76
2022/10/25 08:55:29;;;;;;;8.85;2.05;;;;;;;;;;5067057;28;20021;-75
2022/10/25 08:57:57;;;;;;;10.93;2.00;;;;;;;;;;5070928;28;20024;-76
2022/10/25 09:00:24;;;;;;;9.07;2.22;;;;;;;;;;5072889;28;20016;-76
2022/10/25 09:02:51;;;;;;;6.18;2.05;;;;;;;;;;5069696;28;20393;-76
2022/10/25 09:05:20;;;;;;;9.40;2.13;;;;;;;;;;5070525;28;20466;-76
2022/10/25 09:08:05;;;;;;;7.78;2.17;;;;;;;;;;5071984;28;20041;-76
2022/10/25 09:10:41;;;;;;;9.15;2.25;;;;;;;;;;5071017;28;20055;-76
2022/10/25 09:13:17;;;;;;;8.05;2.20;;;;;;;;;;5054967;28;20013;-77
2022/10/25 09:16:00;;;;;;;7.25;2.53;;;;;;;;;;5052586;28;20090;-77
2022/10/25 09:18:36;;;;;;;13.00;2.50;;;;;;;;;;5052307;28;20047;-74
2022/10/25 09:21:04;;;;;;;10.32;1.83;;;;;;;;;;5052509;28;20043;-76
2022/10/25 09:23:31;;;;;;;19.85;2.45;;;;;;;;;;5062642;28;20427;-76
2022/10/25 09:26:07;;;;;;;5.07;1.95;;;;;;;;;;5068298;28;20029;-77
2022/10/25 09:28:33;;;;;;;15.20;1.45;;;;;;;;;;5070457;28;20027;-76
2022/10/25 09:31:01;;;;;;;19.40;1.85;;;;;;;;;;5071838;28;20507;-77
2022/10/25 09:33:29;;;;;;;4.07;1.25;;;;;;;;;;5066863;28;20396;-76
2022/10/25 09:35:56;;;;;;;7.47;2.17;;;;;;;;;;5071814;28;20025;-76
2022/10/25 09:38:32;;;;;;;10.82;2.33;;;;;;;;;;5071053;28;20028;-76
2022/10/25 09:41:18;;;;;;;10.13;1.90;;;;;;;;;;5066336;28;20035;-77
2022/10/25 09:44:08;;;;;;;16.00;2.67;;;;;;;;;;5069143;28;20404;-77
2022/10/25 09:46:40;;;;;;;10.05;2.20;;;;;;;;;;5069466;28;20043;-77
2022/10/25 09:49:31;;;;;;;40.25;3.42;;;;;;;;;;5069659;28;20044;-77
2022/10/25 09:51:58;;;;;;;8.55;1.70;;;;;;;;;;5069090;28;20497;-77
2022/10/25 09:54:34;;;;;;;16.30;2.75;;;;;;;;;;5068149;28;20025;-77
2022/10/25 09:57:01;;;;;;;21.25;2.17;;;;;;;;;;5068776;28;20440;-77
2022/10/25 09:59:27;;;;;;;17.70;2.17;;;;;;;;;;5067960;28;20035;-77
2022/10/25 10:01:54;;;;;;;20.13;2.35;;;;;;;;;;5069776;28;20382;-76
2022/10/25 10:04:25;;;;;;;2.40;1.20;;;;;;;;;;5067981;28;20051;-77
2022/10/25 10:06:54;;;;;;;7.20;1.40;;;;;;;;;;5067924;28;20029;-77
2022/10/25 10:09:21;;;;;;;4.03;1.30;;;;;;;;;;5068806;28;20077;-76
2022/10/25 10:11:47;;;;;;;4.45;1.23;;;;;;;;;;5069369;28;20044;-77
2022/10/25 10:14:49;;;;;;;2.13;1.25;;;;;;;;;;5069239;28;20501;-77
2022/10/25 10:17:17;;;;;;;9.77;1.83;;;;;;;;;;4989993;28;20391;-77
2022/10/25 10:19:44;;;;;;;5.85;1.20;;;;;;;;;;4990117;28;20505;-77
2022/10/25 10:22:14;;;;;;;3.75;1.40;;;;;;;;;;4989547;28;20029;-77
2022/10/25 10:24:42;;;;;;;2.17;1.20;;;;;;;;;;4989971;28;20088;-76
2022/10/25 10:27:10;;;;;;;6.03;1.05;;;;;;;;;;4989894;28;20034;-77
2022/10/25 10:29:37;;;;;;;5.70;1.35;;;;;;;;;;4989524;28;20041;-77
2022/10/25 10:32:05;;;;;;;14.98;1.60;;;;;;;;;;4989714;28;20052;-76
2022/10/25 10:34:35;;;;;;;6.35;1.17;;;;;;;;;;4989964;28;20036;-77
2022/10/25 10:37:05;;;;;;;4.55;1.90;;;;;;;;;;4989674;28;20040;-76
2022/10/25 10:39:31;;;;;;;5.10;0.93;;;;;;;;;;4973711;28;20125;-77
2022/10/25 10:42:11;;;;;;;5.15;1.40;;;;;;;;;;4990105;28;20030;-77
2022/10/25 10:44:37;;;;;;;5.35;1.10;;;;;;;;;;4990064;28;20108;-77
2022/10/25 10:47:10;;;;;;;3.88;1.08;;;;;;;;;;4973516;28;20026;-78
2022/10/25 10:49:37;;;;;;;7.60;1.27;;;;;;;;;;4989936;28;20057;-77
2022/10/25 10:52:04;;;;;;;1.30;0.88;;;;;;;;;;5042103;28;20094;-77
2022/10/25 10:54:34;;;;;;;9.55;1.20;;;;;;;;;;5051336;28;20451;-77
2022/10/25 10:57:04;;;;;;;3.17;0.90;;;;;;;;;;5051427;28;20039;-77
2022/10/25 10:59:35;;;;;;;10.77;1.23;;;;;;;;;;5051139;28;20021;-78
2022/10/25 11:02:17;;;;;;;2.83;1.00;;;;;;;;;;5051457;28;20397;-76
2022/10/25 11:04:50;;;;;;;6.90;1.13;;;;;;;;;;5051093;28;20040;-79
2022/10/25 11:07:24;;;;;;;6.18;1.25;;;;;;;;;;5068138;28;20028;-76
2022/10/25 11:09:50;;;;;;;9.73;1.58;;;;;;;;;;5071202;28;20367;-78
2022/10/25 11:12:17;;;;;;;8.13;1.20;;;;;;;;;;5071274;28;20031;-84
2022/10/25 11:14:44;;;;;;;2.25;0.90;;;;;;;;;;5070925;28;20400;-82
2022/10/25 11:17:19;;;;;;;2.60;1.05;;;;;;;;;;5071215;28;20028;-78
2022/10/25 11:19:55;;;;;;;5.40;1.70;;;;;;;;;;5070424;28;20047;-76
2022/10/25 11:22:28;;;;;;;8.18;1.45;;;;;;;;;;5070259;28;20366;-76
2022/10/25 11:24:57;;;;;;;6.25;1.35;;;;;;;;;;5070869;28;20078;-77
2022/10/25 11:27:39;;;;;;;5.20;1.42;;;;;;;;;;5071230;28;20017;-76
2022/10/25 11:30:32;;;;;;;6.50;1.80;;;;;;;;;;5073993;28;20370;-76
2022/10/25 11:33:22;;;;;;;7.05;1.60;;;;;;;;;;5072529;28;20040;-77
2022/10/25 11:35:55;;;;;;;7.43;1.33;;;;;;;;;;5068703;28;20029;-76
2022/10/25 11:38:21;;;;;;;3.63;1.15;;;;;;;;;;5070001;28;20049;-76
2022/10/25 11:41:06;;;;;;;4.88;1.17;;;;;;;;;;5074401;28;20031;-76
2022/10/25 11:43:45;;;;;;;5.88;1.05;;;;;;;;;;5090728;28;20043;-76
2022/10/25 11:46:17;;;;;;;4.47;1.35;;;;;;;;;;5071521;28;20032;-75
2022/10/25 11:49:18;;;;;;;3.85;1.40;;;;;;;;;;5071452;28;20055;-76
2022/10/25 11:51:54;;;;;;;5.82;1.33;;;;;;;;;;5032293;28;20025;-76
2022/10/25 11:54:43;;;;;;;6.47;1.42;;;;;;;;;;5031012;28;20041;-76
2022/10/25 11:57:19;;;;;;;14.70;1.70;;;;;;;;;;5011571;28;20044;-77
2022/10/25 12:00:14;;;;;;;11.45;1.70;;;;;;;;;;4993911;28;20046;-77
2022/10/25 12:02:49;;;;;;;8.88;1.60;;;;;;;;;;4999419;28;20054;-77
2022/10/25 12:05:22;;;;;;;5.70;1.73;;;;;;;;;;5011720;28;20040;-77
2022/10/25 12:07:52;;;;;;;5.60;1.88;;;;;;;;;;5010550;28;20453;-77
2022/10/25 12:10:41;;;;;;;5.10;1.50;;;;;;;;;;5010819;28;20076;-77
2022/10/25 12:13:21;;;;;;;4.72;1.60;;;;;;;;;;5003886;28;20040;-78
2022/10/25 12:15:49;;;;;;;9.68;2.05;;;;;;;;;;4999432;28;20026;-77
2022/10/25 12:18:23;;;;;;;8.68;1.83;;;;;;;;;;5011295;28;20030;-78
2022/10/25 12:20:50;;;;;;;5.70;1.52;;;;;;;;;;5011334;28;20022;-77
2022/10/25 12:23:18;;;;;;;11.05;2.10;;;;;;;;;;5011729;28;20030;-77
2022/10/25 12:25:47;;;;;;;7.88;1.73;;;;;;;;;;5042198;28;20049;-77
2022/10/25 12:28:14;;;;;;;8.25;2.13;;;;;;;;;;5070195;28;20023;-78
2022/10/25 12:30:42;;;;;;;9.93;1.77;;;;;;;;;;5071629;28;20099;-77
2022/10/25 12:33:08;;;;;;;6.50;1.98;;;;;;;;;;5087244;28;20034;-77
2022/10/25 12:35:35;;;;;;;7.40;1.70;;;;;;;;;;5074129;28;20126;-76
2022/10/25 12:38:06;;;;;;;7.15;1.63;;;;;;;;;;5073117;28;20028;-77
2022/10/25 12:40:36;;;;;;;11.13;2.05;;;;;;;;;;5068081;28;20036;-76
2022/10/25 12:43:13;;;;;;;8.77;2.00;;;;;;;;;;5070613;28;20481;-77
2022/10/25 12:45:48;;;;;;;6.55;1.90;;;;;;;;;;5071050;28;20032;-77
2022/10/25 12:48:26;;;;;;;5.72;1.98;;;;;;;;;;5072442;28;20021;-76
2022/10/25 12:51:15;;;;;;;9.57;2.28;;;;;;;;;;5078712;28;20032;-76
2022/10/25 12:53:59;;;;;;;7.63;1.95;;;;;;;;;;5071673;28;20028;-77
2022/10/25 12:56:44;;;;;;;7.63;1.98;;;;;;;;;;5071937;28;20020;-76
2022/10/25 12:59:28;;;;;;;6.93;1.77;;;;;;;;;;5072992;28;20036;-75
2022/10/25 13:02:13;;;;;;;6.93;1.98;;;;;;;;;;5052869;28;20021;-77
2022/10/25 13:04:42;;;;;;;9.55;1.90;;;;;;;;;;5052036;28;20044;-77
2022/10/25 13:07:10;;;;;;;6.88;2.15;;;;;;;;;;5067615;28;20020;-77
2022/10/25 13:09:37;;;;;;;10.23;2.10;;;;;;;;;;5071817;28;20017;-77
2022/10/25 13:12:05;;;;;;;5.85;1.83;;;;;;;;;;5072421;28;20031;-77
2022/10/25 13:14:32;;;;;;;8.13;2.55;;;;;;;;;;5072143;28;20051;-77
2022/10/25 13:17:19;;;;;;;7.40;1.95;;;;;;;;;;5071023;28;20028;-77
2022/10/25 13:19:49;;;;;;;9.20;2.17;;;;;;;;;;5064845;28;20040;-78
2022/10/25 13:22:33;;;;;;;7.35;1.88;;;;;;;;;;5052291;28;20434;-76
2022/10/25 13:25:00;;;;;;;6.63;1.88;;;;;;;;;;5051863;28;20049;-76
2022/10/25 13:27:33;;;;;;;7.55;2.10;;;;;;;;;;5052124;28;20025;-77
2022/10/25 13:30:06;;;;;;;8.57;1.60;;;;;;;;;;5051897;28;20500;-76
2022/10/25 13:32:35;;;;;;;9.90;2.10;;;;;;;;;;5052236;28;20025;-76
2022/10/25 13:35:02;;;;;;;7.05;2.05;;;;;;;;;;5051961;28;20142;-78
2022/10/25 13:37:31;;;;;;;10.95;2.20;;;;;;;;;;5063637;28;20029;-76
2022/10/25 13:39:59;;;;;;;7.63;1.90;;;;;;;;;;5073010;28;20016;-76
2022/10/25 13:42:32;;;;;;;7.28;1.88;;;;;;;;;;5071521;28;20024;-76
2022/10/25 13:44:59;;;;;;;8.05;1.85;;;;;;;;;;5066977;28;20041;-76
2022/10/25 13:47:27;;;;;;;9.50;2.03;;;;;;;;;;5071138;28;20073;-76
2022/10/25 13:49:54;;;;;;;8.55;2.28;;;;;;;;;;5071884;28;20021;-76
2022/10/25 13:52:24;;;;;;;10.90;2.00;;;;;;;;;;5070833;28;20036;-76
2022/10/25 13:54:53;;;;;;;5.32;2.13;;;;;;;;;;5071240;28;20020;-76
2022/10/25 13:57:38;;;;;;;10.30;2.60;;;;;;;;;;5072029;28;20028;-77
2022/10/25 14:00:10;;;;;;;10.93;2.35;;;;;;;;;;5050237;28;20037;-76
2022/10/25 14:02:56;;;;;;;9.70;2.20;;;;;;;;;;5051216;28;20035;-76
2022/10/25 14:05:41;;;;;;;10.25;2.53;;;;;;;;;;5050790;28;20047;-76
2022/10/25 14:08:16;;;;;;;12.65;1.90;;;;;;;;;;5050947;28;20029;-76
2022/10/25 14:10:42;;;;;;;7.47;1.92;;;;;;;;;;5054645;28;20029;-76
2022/10/25 14:13:15;;;;;;;8.80;2.10;;;;;;;;;;5071569;28;20017;-76
2022/10/25 14:15:54;;;;;;;8.05;2.22;;;;;;;;;;5072006;28;20042;-75
2022/10/25 14:18:22;;;;;;;10.77;2.22;;;;;;;;;;5072106;28;20451;-76
2022/10/25 14:20:53;;;;;;;10.75;2.10;;;;;;;;;;5071930;28;20038;-76
2022/10/25 14:23:22;;;;;;;9.40;2.08;;;;;;;;;;5071860;28;20538;-75
2022/10/25 14:25:58;;;;;;;9.02;2.17;;;;;;;;;;5071555;28;20044;-76
2022/10/25 14:28:25;;;;;;;13.55;2.30;;;;;;;;;;5071729;28;20025;-76
2022/10/25 14:30:56;;;;;;;10.93;2.40;;;;;;;;;;5072435;28;20020;-75
2022/10/25 14:33:22;;;;;;;9.68;2.40;;;;;;;;;;5071669;28;20556;-76
2022/10/25 14:35:50;;;;;;;9.20;2.05;;;;;;;;;;5056383;28;20390;-76
2022/10/25 14:38:18;;;;;;;7.32;2.40;;;;;;;;;;5051881;28;20032;-75
2022/10/25 14:40:57;;;;;;;8.48;2.20;;;;;;;;;;5062262;28;20013;-76
2022/10/25 14:43:26;;;;;;;13.07;2.72;;;;;;;;;;5070854;28;20028;-75
2022/10/25 14:46:13;;;;;;;12.02;2.50;;;;;;;;;;5057041;28;20135;-75
2022/10/25 14:48:45;;;;;;;9.20;2.42;;;;;;;;;;5064541;28;20029;-75
2022/10/25 14:51:44;;;;;;;12.60;2.80;;;;;;;;;;5070321;28;20085;-74
2022/10/25 14:54:21;;;;;;;13.65;2.58;;;;;;;;;;5046010;28;20040;-76
2022/10/25 14:56:50;;;;;;;12.98;3.10;;;;;;;;;;5037355;28;20039;-74